Huntly, United Kingdom
Current Conditions -  °F | °C
As of 12:50 PM on Monday 20 Oct 2014 (Local Time) from EGQS Reporting Station
Broken Clouds Broken Clouds  
Wind Chill: 55°   Ceiling: 5500
Heat Index: 55°   Visibility: 6mi
Dew Point: 46°   Wind: 13mph
Humidity: 72%   Direction: 240°WSW
Pressure: 29.62"   Gusts: NA
Location:  57.45°N, 2.79°W
Report Text: EGQS 201150Z 24011KT 9999 FEW040 BKN055 13/08 Q1003 BLU NOSIG
Loading
Personal Weather Stations






























Interactive Weather Map
Tropical Storm Tracking
New forecast layout! Learn more

10-Day Weather Forecast

Advertisements
Track Severe Weather on mobile